createdAt,value
2019-03-03T00:00:45.346Z,5.58
2019-03-03T00:05:48.828Z,5.65
2019-03-03T00:10:52.154Z,5.66
2019-03-03T00:15:55.441Z,5.78
2019-03-03T00:20:58.814Z,5.77
2019-03-03T00:26:02.073Z,5.74
2019-03-03T00:31:05.429Z,5.76
2019-03-03T00:36:08.767Z,5.78
2019-03-03T00:42:19.283Z,5.74
2019-03-03T00:47:33.567Z,5.75
2019-03-03T00:52:57.992Z,5.80
2019-03-03T01:00:12.891Z,5.85
2019-03-03T01:05:39.181Z,5.92
2019-03-03T01:10:51.670Z,6.07
2019-03-03T01:15:59.105Z,6.04
2019-03-03T01:21:06.531Z,6.18
2019-03-03T01:26:09.838Z,6.13
2019-03-03T01:31:13.198Z,6.46
2019-03-03T01:36:16.581Z,6.43
2019-03-03T01:41:19.965Z,6.70
2019-03-03T01:46:23.219Z,6.76
2019-03-03T01:51:26.494Z,6.77
2019-03-03T01:56:29.739Z,6.80
2019-03-03T02:01:33.178Z,6.80
2019-03-03T02:06:36.416Z,6.77
2019-03-03T02:11:40.058Z,6.74
2019-03-03T02:16:44.346Z,6.71
2019-03-03T02:21:47.589Z,6.86
2019-03-03T02:26:50.860Z,6.80
2019-03-03T02:31:54.130Z,6.66
2019-03-03T02:36:57.571Z,6.72
2019-03-03T02:42:00.828Z,6.84
2019-03-03T02:47:04.071Z,6.76
2019-03-03T02:52:07.313Z,6.75
2019-03-03T02:57:10.951Z,6.70
2019-03-03T03:02:18.387Z,6.76
2019-03-03T03:07:26.759Z,6.83
2019-03-03T03:12:40.141Z,6.79
2019-03-03T03:19:50.879Z,6.91
2019-03-03T03:25:00.444Z,6.96
2019-03-03T03:30:08.958Z,6.98
2019-03-03T03:35:24.237Z,7.10
2019-03-03T03:40:32.892Z,7.25
2019-03-03T03:45:44.320Z,7.21
2019-03-03T03:50:51.755Z,7.34
2019-03-03T03:56:18.319Z,7.23
2019-03-03T04:01:26.918Z,7.25
2019-03-03T04:06:37.346Z,7.11
2019-03-03T04:11:44.905Z,7.34
2019-03-03T04:16:52.444Z,7.22
2019-03-03T04:22:09.944Z,7.24
2019-03-03T04:27:18.534Z,7.42
2019-03-03T04:32:25.985Z,7.37
2019-03-03T04:37:34.385Z,7.32
2019-03-03T04:42:43.775Z,7.25
2019-03-03T04:47:58.094Z,7.18
2019-03-03T04:53:06.670Z,7.18
2019-03-03T04:58:18.080Z,7.07
2019-03-03T05:03:25.657Z,7.17
2019-03-03T05:08:33.074Z,7.05
2019-03-03T05:13:56.238Z,7.00
2019-03-03T05:19:03.557Z,6.91
2019-03-03T05:24:06.809Z,6.79
2019-03-03T05:29:10.244Z,6.68
2019-03-03T05:34:13.577Z,6.62
2019-03-03T05:39:16.811Z,6.56
2019-03-03T05:44:20.200Z,6.52
2019-03-03T05:49:23.444Z,6.54
2019-03-03T05:54:26.707Z,6.55
2019-03-03T05:59:29.972Z,6.58
2019-03-03T06:04:33.225Z,6.58
2019-03-03T06:09:36.486Z,6.58
2019-03-03T06:14:39.738Z,6.66
2019-03-03T06:19:43.015Z,6.69
2019-03-03T06:24:46.263Z,6.72
2019-03-03T06:29:49.617Z,6.75
2019-03-03T06:34:52.863Z,6.81
2019-03-03T06:39:56.147Z,6.84
2019-03-03T06:44:59.376Z,6.88
2019-03-03T06:50:02.646Z,6.90
2019-03-03T06:55:06.098Z,6.99
2019-03-03T07:00:12.268Z,6.99
2019-03-03T07:05:15.500Z,7.04
2019-03-03T07:10:18.854Z,7.13
2019-03-03T07:15:22.089Z,7.14
2019-03-03T07:20:28.587Z,7.22
2019-03-03T07:25:31.872Z,7.26
2019-03-03T07:30:35.142Z,7.35
2019-03-03T07:35:38.384Z,7.37
2019-03-03T07:40:41.677Z,7.63
2019-03-03T07:45:44.969Z,7.67
2019-03-03T07:50:48.214Z,7.72
2019-03-03T07:55:51.465Z,7.91
2019-03-03T08:00:54.794Z,7.98
2019-03-03T08:05:58.109Z,7.96
2019-03-03T08:11:01.417Z,7.97
2019-03-03T08:16:04.719Z,8.12
2019-03-03T08:21:08.051Z,8.24
2019-03-03T08:26:11.300Z,8.48
2019-03-03T08:31:14.558Z,8.47
2019-03-03T08:36:17.897Z,8.50
2019-03-03T08:41:21.162Z,8.54
2019-03-03T08:46:29.819Z,8.59
2019-03-03T08:51:46.167Z,8.64
2019-03-03T08:56:57.540Z,8.72
2019-03-03T09:02:06.969Z,8.58
2019-03-03T09:07:16.371Z,8.58
2019-03-03T09:12:24.955Z,8.58
2019-03-03T09:17:48.247Z,8.61
2019-03-03T09:24:03.563Z,8.69
2019-03-03T09:29:44.887Z,8.72
2019-03-03T09:34:55.245Z,8.83
2019-03-03T09:40:09.340Z,8.88
2019-03-03T09:45:28.814Z,8.93
2019-03-03T09:50:37.332Z,9.02
2019-03-03T09:55:45.915Z,9.08
2019-03-03T10:00:54.341Z,9.15
2019-03-03T10:06:04.793Z,9.17
2019-03-03T10:11:14.166Z,9.24
2019-03-03T10:16:52.471Z,9.27
2019-03-03T10:22:01.935Z,9.33
2019-03-03T10:27:10.398Z,9.36
2019-03-03T10:32:19.698Z,9.41
2019-03-03T10:37:29.255Z,9.43
2019-03-03T10:42:41.630Z,9.44
2019-03-03T10:47:51.936Z,9.42
2019-03-03T10:52:59.530Z,9.49
2019-03-03T10:58:09.035Z,9.49
2019-03-03T11:03:19.574Z,9.53
2019-03-03T11:08:28.122Z,9.60
2019-03-03T11:13:39.427Z,9.67
2019-03-03T11:18:55.936Z,9.80
2019-03-03T11:23:59.396Z,10.02
2019-03-03T11:29:42.958Z,10.19
2019-03-03T11:34:55.495Z,10.49
2019-03-03T11:40:06.344Z,10.53
2019-03-03T11:45:14.743Z,10.39
2019-03-03T11:50:23.199Z,10.61
2019-03-03T11:55:31.727Z,10.71
2019-03-03T12:00:45.164Z,10.70
2019-03-03T12:06:25.074Z,10.46
2019-03-03T12:11:42.458Z,10.44
2019-03-03T12:16:53.959Z,10.42
2019-03-03T12:23:04.535Z,10.35
2019-03-03T12:28:15.058Z,10.48
2019-03-03T12:33:24.678Z,10.47
2019-03-03T12:38:35.088Z,10.52
2019-03-03T12:43:43.538Z,10.61
2019-03-03T12:48:56.125Z,10.60
2019-03-03T12:54:04.826Z,10.74
2019-03-03T13:00:15.202Z,10.81
2019-03-03T13:05:25.508Z,10.74
2019-03-03T13:10:34.124Z,10.93
2019-03-03T13:15:46.423Z,10.88
2019-03-03T13:20:57.909Z,10.83
2019-03-03T13:26:06.539Z,11.18
2019-03-03T13:31:15.251Z,11.27
2019-03-03T13:36:23.852Z,11.24
2019-03-03T13:41:33.133Z,11.54
2019-03-03T13:46:36.498Z,11.47
2019-03-03T13:51:39.805Z,11.26
2019-03-03T13:56:44.058Z,11.30
2019-03-03T14:01:47.323Z,11.29
2019-03-03T14:06:50.683Z,11.33
2019-03-03T14:11:54.032Z,11.25
2019-03-03T14:16:57.390Z,11.29
2019-03-03T14:22:00.815Z,11.20
2019-03-03T14:27:10.538Z,11.18
2019-03-03T14:32:07.596Z,11.16
2019-03-03T14:37:10.906Z,11.13
2019-03-03T14:42:14.214Z,11.10
2019-03-03T14:47:17.539Z,11.07
2019-03-03T14:52:20.845Z,11.07
2019-03-03T14:57:24.244Z,11.05
2019-03-03T15:02:27.531Z,11.08
2019-03-03T15:07:30.846Z,11.08
2019-03-03T15:12:34.127Z,11.07
2019-03-03T15:17:37.575Z,11.09
2019-03-03T15:22:41.289Z,11.08
2019-03-03T15:27:44.630Z,11.02
2019-03-03T15:32:47.892Z,11.01
2019-03-03T15:37:51.214Z,10.93
2019-03-03T15:42:54.488Z,10.88
2019-03-03T15:47:57.837Z,10.84
2019-03-03T15:53:01.615Z,10.87
2019-03-03T15:58:04.896Z,10.91
2019-03-03T16:03:08.184Z,10.81
2019-03-03T16:08:11.469Z,10.87
2019-03-03T16:13:14.742Z,10.93
2019-03-03T16:18:18.013Z,10.85
2019-03-03T16:23:22.325Z,10.87
2019-03-03T16:28:25.615Z,10.90
2019-03-03T16:33:28.929Z,10.84
2019-03-03T16:38:32.235Z,10.78
2019-03-03T16:43:35.538Z,10.82
2019-03-03T16:48:39.029Z,10.67
2019-03-03T16:53:42.393Z,10.59
2019-03-03T16:58:45.665Z,10.67
2019-03-03T17:03:48.957Z,10.50
2019-03-03T17:08:52.910Z,10.50
2019-03-03T17:13:56.241Z,10.42
2019-03-03T17:18:59.530Z,10.45
2019-03-03T17:24:02.932Z,10.27
2019-03-03T17:29:06.233Z,10.20
2019-03-03T17:34:13.089Z,10.09
2019-03-03T17:39:12.931Z,9.95
2019-03-03T17:44:16.301Z,9.88
2019-03-03T17:49:19.618Z,9.87
2019-03-03T17:54:22.986Z,9.77
2019-03-03T17:59:26.318Z,9.86
2019-03-03T18:04:29.919Z,9.82
2019-03-03T18:09:33.242Z,9.73
2019-03-03T18:14:37.505Z,9.81
2019-03-03T18:19:40.935Z,9.68
2019-03-03T18:24:44.302Z,9.61
2019-03-03T18:29:47.694Z,9.58
2019-03-03T18:34:51.333Z,9.37
2019-03-03T18:39:54.695Z,9.03
2019-03-03T18:44:58.015Z,8.89
2019-03-03T18:50:01.457Z,8.75
2019-03-03T18:55:06.143Z,8.74
2019-03-03T19:00:12.138Z,8.68
2019-03-03T19:05:17.615Z,8.51
2019-03-03T19:10:19.327Z,8.61
2019-03-03T19:15:22.672Z,8.60
2019-03-03T19:20:25.964Z,8.56
2019-03-03T19:25:29.289Z,8.39
2019-03-03T19:30:32.589Z,8.24
2019-03-03T19:35:35.894Z,8.19
2019-03-03T19:40:39.276Z,8.13
2019-03-03T19:45:43.938Z,8.20
2019-03-03T19:50:48.599Z,8.27
2019-03-03T19:55:52.347Z,8.15
2019-03-03T20:00:55.791Z,8.01
2019-03-03T20:05:59.220Z,7.87
2019-03-03T20:11:03.009Z,7.79
2019-03-03T20:16:06.506Z,7.75
2019-03-03T20:21:09.969Z,7.71
2019-03-03T20:26:14.327Z,7.63
2019-03-03T20:31:18.151Z,7.49
2019-03-03T20:36:21.623Z,7.53
2019-03-03T20:41:25.128Z,7.46
2019-03-03T20:46:28.679Z,7.45
2019-03-03T20:51:33.015Z,7.38
2019-03-03T20:56:36.481Z,7.34
2019-03-03T21:01:39.997Z,7.37
2019-03-03T21:06:43.673Z,7.18
2019-03-03T21:11:47.390Z,6.93
2019-03-03T21:16:50.657Z,6.74
2019-03-03T21:21:54.036Z,6.61
2019-03-03T21:26:58.034Z,6.36
2019-03-03T21:32:01.453Z,6.50
2019-03-03T21:37:04.894Z,6.54
2019-03-03T21:42:08.224Z,6.62
2019-03-03T21:47:11.738Z,6.75
2019-03-03T21:52:15.161Z,6.85
2019-03-03T21:57:18.879Z,6.79
2019-03-03T22:02:22.916Z,6.74
2019-03-03T22:07:26.578Z,6.74
2019-03-03T22:12:30.725Z,6.77
2019-03-03T22:17:33.976Z,6.80
2019-03-03T22:22:37.206Z,6.87
2019-03-03T22:27:40.999Z,6.89
2019-03-03T22:32:44.589Z,6.92
2019-03-03T22:37:48.278Z,6.92
2019-03-03T22:42:51.938Z,6.86
2019-03-03T22:47:55.384Z,6.89
2019-03-03T22:52:59.060Z,6.76
2019-03-03T22:58:04.033Z,6.51
2019-03-03T23:03:07.755Z,6.31
2019-03-03T23:08:18.673Z,6.26
2019-03-03T23:14:31.445Z,6.21
2019-03-03T23:19:55.495Z,6.25
2019-03-03T23:25:08.683Z,6.26
2019-03-03T23:30:12.013Z,6.31
2019-03-03T23:35:15.263Z,6.35
2019-03-03T23:40:18.537Z,6.33
2019-03-03T23:45:21.816Z,6.35
2019-03-03T23:50:25.088Z,6.39
2019-03-03T23:55:28.341Z,6.49
